»·PEaware :: SKW5523 KSFO-KACV

SKW5523 :: KSFO-KACV

FLIGHT INFORMATION

Flight Status: Arrived
Operator:
SkyWest Airlines
More flights by this operator :: More flights under this callsign
Pilot: Paul K. (16555)
Aircraft: BOEING 727-200
(B722)
More flights by this aircraft type
Origin: KSFO San Francisco Intl
United States
Destination: KACV Arcata
United States
More flights between these airports :: More routes between these airports
Route: +MOLEN8 ENI V607 ACV
File this flight plan on PilotEdge
Remarks:
Altitude:
(Current/Filed)
30,000ft
Speed:
(Current/Filed)
491kts
Departed: 29-Sep-18 05:39 PM
Arrived: 29-Sep-18 06:19 PM
Distance/Time
Traveled:
217nm/0:40
Distance/Time
To Go:
Arrived

Flight Plot

Page will automatically refresh every two minutes.

Flight plan parsing failed; only flown route is shown


Map Options




Map Legend


Flown Route
Filed Route
Departure Airport
Arrival Airport
Navaid (VOR, NDB)
Fix

Horizontal Profiles

Position Reports

Time Latitude Longitude Heading Altitude Ground
Speed
29-Sep-18 17:11 37.617760 -122.382907 135 25ft 0kts
29-Sep-18 17:12 37.617760 -122.382907 135 25ft 0kts
29-Sep-18 17:13 37.617760 -122.382907 135 25ft 0kts
29-Sep-18 17:14 37.617760 -122.382907 135 25ft 0kts
29-Sep-18 17:15 37.617760 -122.382907 135 25ft 0kts
29-Sep-18 17:16 37.617760 -122.382907 135 25ft 0kts
29-Sep-18 17:17 37.617760 -122.382907 135 25ft 0kts
29-Sep-18 17:18 37.617760 -122.382907 135 25ft 0kts
29-Sep-18 17:19 37.617760 -122.382907 135 25ft 0kts
29-Sep-18 17:20 37.617760 -122.382907 134 25ft 0kts
29-Sep-18 17:21 37.617760 -122.382907 134 25ft 0kts
29-Sep-18 17:22 37.617760 -122.382907 134 25ft 0kts
29-Sep-18 17:23 37.617760 -122.382907 135 25ft 0kts
29-Sep-18 17:24 37.617760 -122.382907 135 25ft 0kts
29-Sep-18 17:25 37.617908 -122.383106 132 25ft 2kts
29-Sep-18 17:26 37.618272 -122.383044 274 25ft 2kts
29-Sep-18 17:27 37.618667 -122.382568 209 25ft 2kts
29-Sep-18 17:28 37.618807 -122.382473 207 25ft 0kts
29-Sep-18 17:29 37.618861 -122.382437 207 25ft 2kts
29-Sep-18 17:30 37.619349 -122.382131 189 25ft 2kts
29-Sep-18 17:31 37.619829 -122.382401 120 25ft 0kts
29-Sep-18 17:32 37.619857 -122.382471 118 25ft 0kts
29-Sep-18 17:33 37.619857 -122.382471 118 25ft 0kts
29-Sep-18 17:34 37.619704 -122.382108 118 25ft 8kts
29-Sep-18 17:35 37.618586 -122.379496 117 25ft 9kts
29-Sep-18 17:36 37.617450 -122.376085 110 25ft 11kts
29-Sep-18 17:37 37.616227 -122.372767 118 25ft 13kts
29-Sep-18 17:38 37.613525 -122.367461 119 25ft 17kts
29-Sep-18 17:39 37.611181 -122.361977 118 25ft 10kts
29-Sep-18 17:40 37.611685 -122.358788 349 25ft 4kts
29-Sep-18 17:41 37.615883 -122.368537 294 26ft 132kts
29-Sep-18 17:42 37.637163 -122.411617 294 2112ft 172kts
29-Sep-18 17:43 37.668224 -122.490652 303 4997ft 265kts
29-Sep-18 17:44 37.712544 -122.550317 299 7929ft 293kts
29-Sep-18 17:45 37.759727 -122.637379 300 11043ft 330kts
29-Sep-18 17:46 37.812179 -122.736953 298 14326ft 349kts
29-Sep-18 17:47 37.867098 -122.841289 297 17290ft 364kts
29-Sep-18 17:48 37.923934 -122.949408 296 19966ft 375kts
29-Sep-18 17:49 37.982166 -123.060521 296 22359ft 383kts
29-Sep-18 17:50 38.078450 -123.119651 0 24222ft 442kts
29-Sep-18 17:51 38.201327 -123.124616 348 25782ft 446kts
29-Sep-18 17:52 38.325295 -123.143976 346 27224ft 456kts
29-Sep-18 17:53 38.452226 -123.166122 345 28514ft 466kts
29-Sep-18 17:54 38.581402 -123.189069 345 29691ft 475kts
29-Sep-18 17:55 38.714080 -123.212830 345 30011ft 494kts
29-Sep-18 17:56 38.850933 -123.237340 345 30003ft 499kts
29-Sep-18 17:57 38.987367 -123.263329 346 30002ft 495kts
29-Sep-18 17:58 39.121159 -123.296799 343 29996ft 490kts
29-Sep-18 17:59 39.252949 -123.337869 342 29995ft 486kts
29-Sep-18 18:00 39.383374 -123.379885 342 29996ft 484kts
29-Sep-18 18:01 39.512104 -123.421584 342 29848ft 459kts
29-Sep-18 18:02 39.633573 -123.461234 342 27957ft 443kts
29-Sep-18 18:03 39.750989 -123.499670 342 26053ft 431kts
29-Sep-18 18:04 39.865029 -123.537132 342 24162ft 420kts
29-Sep-18 18:05 39.976542 -123.573878 343 22276ft 410kts
29-Sep-18 18:06 40.085791 -123.609998 343 20396ft 402kts
29-Sep-18 18:07 40.192754 -123.645239 343 18485ft 395kts
29-Sep-18 18:08 40.297784 -123.681225 342 16580ft 388kts
29-Sep-18 18:09 40.399953 -123.719844 331 14669ft 375kts
29-Sep-18 18:10 40.485410 -123.776498 330 12722ft 320kts
29-Sep-18 18:11 40.559990 -123.825976 330 10808ft 291kts
29-Sep-18 18:12 40.632081 -123.866571 336 9026ft 272kts
29-Sep-18 18:13 40.687715 -123.909998 318 8329ft 221kts
29-Sep-18 18:14 40.745220 -123.951448 331 5702ft 250kts
29-Sep-18 18:15 40.797077 -123.986118 334 4390ft 176kts
29-Sep-18 18:16 40.836161 -124.012457 335 3312ft 155kts
29-Sep-18 18:17 40.872745 -124.036781 332 2423ft 138kts
29-Sep-18 18:18 40.908536 -124.061158 331 1638ft 148kts
29-Sep-18 18:19 40.942652 -124.084135 331 860ft 132kts
29-Sep-18 18:20 40.974557 -124.106012 332 234ft 115kts
29-Sep-18 18:21 40.984397 -124.113530 175 234ft 14kts
29-Sep-18 18:22 40.980426 -124.111048 152 234ft 17kts
29-Sep-18 18:23 40.978309 -124.109614 153 234ft 8kts
29-Sep-18 18:24 40.974604 -124.108525 181 234ft 15kts
29-Sep-18 18:25 40.971816 -124.105983 149 234ft 13kts
29-Sep-18 18:26 40.970997 -124.105731 292 234ft 0kts
29-Sep-18 18:27 40.970997 -124.105731 292 234ft 0kts
29-Sep-18 18:28 40.970997 -124.105731 292 234ft 0kts
29-Sep-18 18:29 40.970997 -124.105731 292 234ft 0kts
29-Sep-18 18:30 40.970997 -124.105731 292 234ft 0kts
29-Sep-18 18:31 40.970997 -124.105731 292 234ft 0kts
29-Sep-18 18:32 40.970997 -124.105731 292 234ft 0kts
29-Sep-18 18:33 40.970997 -124.105731 292 234ft 0kts
29-Sep-18 18:34 40.970997 -124.105731 292 234ft 0kts
29-Sep-18 18:35 40.970997 -124.105731 292 234ft 0kts

Navigation Log

Ident Type
Flight plan parsing failed, navigation log unavailable